createdAt,value
2022-10-04T00:08:47.556Z,96891.20
2022-10-04T00:19:20.487Z,96887.67
2022-10-04T00:29:27.817Z,96883.83
2022-10-04T00:39:34.796Z,96878.89
2022-10-04T00:49:43.271Z,96864.45
2022-10-04T00:59:48.878Z,96873.63
2022-10-04T01:09:58.072Z,96865.01
2022-10-04T01:20:02.535Z,96867.77
2022-10-04T01:30:17.998Z,96865.14
2022-10-04T01:40:22.409Z,96861.23
2022-10-04T01:50:34.959Z,96855.77
2022-10-04T02:00:46.459Z,96847.80
2022-10-04T02:10:52.830Z,96856.64
2022-10-04T02:20:57.181Z,96858.90
2022-10-04T02:31:20.147Z,96863.17
2022-10-04T02:41:32.240Z,96856.73
2022-10-04T02:51:41.597Z,96874.16
2022-10-04T03:01:58.546Z,96883.18
2022-10-04T03:12:05.119Z,96876.76
2022-10-04T03:22:11.763Z,96878.27
2022-10-04T03:32:18.264Z,96875.23
2022-10-04T03:42:30.699Z,96882.39
2022-10-04T03:52:38.237Z,96879.61
2022-10-04T04:02:58.888Z,96892.21
2022-10-04T04:13:41.459Z,96897.08
2022-10-04T04:23:54.412Z,96897.71
2022-10-04T04:34:02.707Z,96896.17
2022-10-04T04:44:18.537Z,96897.65
2022-10-04T04:54:25.685Z,96909.30
2022-10-04T05:04:29.543Z,96921.55
2022-10-04T05:14:34.048Z,96932.52
2022-10-04T05:24:42.913Z,96938.73
2022-10-04T05:34:51.645Z,96942.29
2022-10-04T05:44:57.717Z,96956.84
2022-10-04T05:55:14.069Z,96970.58
2022-10-04T06:05:29.426Z,96972.38
2022-10-04T06:16:41.212Z,96986.88
2022-10-04T06:27:10.382Z,97000.61
2022-10-04T06:37:25.728Z,97005.41
2022-10-04T06:47:32.126Z,97021.94
2022-10-04T06:57:55.440Z,97027.38
2022-10-04T07:08:10.664Z,97048.84
2022-10-04T07:18:22.660Z,97060.52
2022-10-04T07:28:50.800Z,97076.88
2022-10-04T07:39:00.551Z,97074.51
2022-10-04T07:49:04.958Z,97080.19
2022-10-04T07:59:15.498Z,97085.67
2022-10-04T08:09:30.855Z,97095.89
2022-10-04T08:19:42.870Z,97104.40
2022-10-04T08:30:17.173Z,97123.43
2022-10-04T08:40:44.777Z,97127.63
2022-10-04T08:51:35.236Z,97133.36
2022-10-04T09:02:07.460Z,97147.21
2022-10-04T09:12:37.977Z,97154.70
2022-10-04T09:23:10.872Z,97172.73
2022-10-04T09:33:29.783Z,97179.20
2022-10-04T09:43:50.258Z,97184.66
2022-10-04T09:54:31.441Z,97189.30
2022-10-04T10:04:47.847Z,97200.20
2022-10-04T10:15:19.608Z,97206.88
2022-10-04T10:25:52.744Z,97219.82
2022-10-04T10:36:05.238Z,97227.23
2022-10-04T10:46:47.521Z,97235.73
2022-10-04T10:57:23.624Z,97236.70
2022-10-04T11:07:53.906Z,97232.74
2022-10-04T11:18:12.843Z,97233.75
2022-10-04T11:28:25.660Z,97245.67
2022-10-04T11:38:58.526Z,97256.73
2022-10-04T11:49:30.052Z,97256.63
2022-10-04T11:59:40.005Z,97259.38
2022-10-04T12:10:02.396Z,97264.64
2022-10-04T12:20:44.797Z,97265.43
2022-10-04T12:31:12.316Z,97267.02
2022-10-04T12:41:37.829Z,97262.41
2022-10-04T12:51:53.905Z,97263.37
2022-10-04T13:02:22.327Z,97274.92
2022-10-04T13:12:39.414Z,97282.88
2022-10-04T13:22:58.459Z,97285.23
2022-10-04T13:33:02.286Z,97300.96
2022-10-04T13:43:15.093Z,97306.59
2022-10-04T13:53:53.142Z,97311.25
2022-10-04T14:04:17.181Z,97310.48
2022-10-04T14:14:27.240Z,97319.52
2022-10-04T14:24:50.297Z,97319.80
2022-10-04T14:35:16.604Z,97323.25
2022-10-04T14:45:55.838Z,97331.98
2022-10-04T14:56:24.580Z,97333.41
2022-10-04T15:06:51.272Z,97337.25
2022-10-04T15:16:58.936Z,97341.08
2022-10-04T15:27:26.711Z,97355.15
2022-10-04T15:37:48.969Z,97365.83
2022-10-04T15:48:11.633Z,97375.20
2022-10-04T15:58:18.709Z,97387.41
2022-10-04T16:08:47.985Z,97394.33
2022-10-04T16:19:19.784Z,97411.52
2022-10-04T16:29:38.531Z,97420.70
2022-10-04T16:40:00.418Z,97430.14
2022-10-04T16:50:09.323Z,97438.27
2022-10-04T17:00:39.671Z,97443.67
2022-10-04T17:10:49.401Z,97459.17
2022-10-04T17:21:22.298Z,97472.54
2022-10-04T17:31:29.071Z,97485.09
2022-10-04T17:41:58.174Z,97494.95
2022-10-04T17:52:24.202Z,97497.64
2022-10-04T18:03:24.823Z,97513.48
2022-10-04T18:13:47.474Z,97536.13
2022-10-04T18:24:03.108Z,97551.50
2022-10-04T18:34:31.022Z,97560.61
2022-10-04T18:44:59.429Z,97573.82
2022-10-04T18:55:03.638Z,97585.34
2022-10-04T19:05:35.648Z,97587.12
2022-10-04T19:15:58.200Z,97592.57
2022-10-04T19:26:32.108Z,97590.04
2022-10-04T19:36:48.099Z,97602.59
2022-10-04T19:47:09.419Z,97618.73
2022-10-04T19:57:17.029Z,97620.27
2022-10-04T20:07:25.534Z,97625.30
2022-10-04T20:17:34.235Z,97629.19
2022-10-04T20:27:41.066Z,97634.94
2022-10-04T20:37:44.651Z,97645.88
2022-10-04T20:47:59.654Z,97649.96
2022-10-04T20:58:23.993Z,97654.98
2022-10-04T21:08:28.267Z,97668.28
2022-10-04T21:18:31.833Z,97675.23
2022-10-04T21:28:36.008Z,97682.88
2022-10-04T21:38:39.783Z,97690.69
2022-10-04T21:48:43.484Z,97692.20
2022-10-04T21:58:47.214Z,97701.09
2022-10-04T22:08:51.391Z,97703.29
2022-10-04T22:18:55.360Z,97699.44
2022-10-04T22:28:59.025Z,97704.37
2022-10-04T22:39:13.139Z,97709.48
2022-10-04T22:49:21.803Z,97710.27
2022-10-04T22:59:39.347Z,97703.77
2022-10-04T23:09:42.908Z,97684.10
2022-10-04T23:19:46.619Z,97677.75
2022-10-04T23:29:58.489Z,97667.31
2022-10-04T23:40:02.245Z,97657.25
2022-10-04T23:50:34.877Z,97677.13
